sensor_id;sensor_type;location;lat;lon;timestamp;temperature;humidity
9482;DHT22;4779;48.062;11.672;2023-06-26T00:01:52;18.60;92.50
9482;DHT22;4779;48.062;11.672;2023-06-26T00:04:19;18.60;92.90
9482;DHT22;4779;48.062;11.672;2023-06-26T00:06:46;18.60;92.60
9482;DHT22;4779;48.062;11.672;2023-06-26T00:09:13;18.60;92.70
9482;DHT22;4779;48.062;11.672;2023-06-26T00:11:41;18.50;92.80
9482;DHT22;4779;48.062;11.672;2023-06-26T00:14:08;18.50;92.80
9482;DHT22;4779;48.062;11.672;2023-06-26T00:16:36;18.50;92.80
9482;DHT22;4779;48.062;11.672;2023-06-26T00:19:02;18.40;92.80
9482;DHT22;4779;48.062;11.672;2023-06-26T00:21:29;18.40;92.70
9482;DHT22;4779;48.062;11.672;2023-06-26T00:23:56;18.40;92.80
9482;DHT22;4779;48.062;11.672;2023-06-26T00:26:23;18.40;92.70
9482;DHT22;4779;48.062;11.672;2023-06-26T00:28:52;18.30;92.70
9482;DHT22;4779;48.062;11.672;2023-06-26T00:31:18;18.20;92.90
9482;DHT22;4779;48.062;11.672;2023-06-26T00:33:45;18.20;93.00
9482;DHT22;4779;48.062;11.672;2023-06-26T00:36:12;18.20;93.20
9482;DHT22;4779;48.062;11.672;2023-06-26T00:38:40;18.10;93.00
9482;DHT22;4779;48.062;11.672;2023-06-26T00:41:06;18.10;93.10
9482;DHT22;4779;48.062;11.672;2023-06-26T00:43:38;18.10;93.10
9482;DHT22;4779;48.062;11.672;2023-06-26T00:46:09;18.10;92.90
9482;DHT22;4779;48.062;11.672;2023-06-26T00:48:37;18.10;92.90
9482;DHT22;4779;48.062;11.672;2023-06-26T00:51:04;18.10;92.90
9482;DHT22;4779;48.062;11.672;2023-06-26T00:53:31;18.00;93.50
9482;DHT22;4779;48.062;11.672;2023-06-26T00:55:58;18.00;93.10
9482;DHT22;4779;48.062;11.672;2023-06-26T00:58:25;18.00;92.80
9482;DHT22;4779;48.062;11.672;2023-06-26T01:00:52;18.00;92.80
9482;DHT22;4779;48.062;11.672;2023-06-26T01:03:22;18.00;93.20
9482;DHT22;4779;48.062;11.672;2023-06-26T01:05:50;17.90;92.90
9482;DHT22;4779;48.062;11.672;2023-06-26T01:08:18;17.90;92.80
9482;DHT22;4779;48.062;11.672;2023-06-26T01:10:46;17.90;93.00
9482;DHT22;4779;48.062;11.672;2023-06-26T01:13:14;17.90;92.90
9482;DHT22;4779;48.062;11.672;2023-06-26T01:15:41;17.90;93.00
9482;DHT22;4779;48.062;11.672;2023-06-26T01:18:08;17.90;92.90
9482;DHT22;4779;48.062;11.672;2023-06-26T01:20:38;17.90;93.00
9482;DHT22;4779;48.062;11.672;2023-06-26T01:23:14;17.80;93.10
9482;DHT22;4779;48.062;11.672;2023-06-26T01:25:56;17.80;93.00
9482;DHT22;4779;48.062;11.672;2023-06-26T01:28:28;17.80;93.20
9482;DHT22;4779;48.062;11.672;2023-06-26T01:30:56;17.80;93.20
9482;DHT22;4779;48.062;11.672;2023-06-26T01:33:23;17.80;93.10
9482;DHT22;4779;48.062;11.672;2023-06-26T01:35:50;17.70;93.20
9482;DHT22;4779;48.062;11.672;2023-06-26T01:38:18;17.60;93.20
9482;DHT22;4779;48.062;11.672;2023-06-26T01:40:46;17.70;93.30
9482;DHT22;4779;48.062;11.672;2023-06-26T01:43:18;17.70;93.30
9482;DHT22;4779;48.062;11.672;2023-06-26T01:45:51;17.60;93.20
9482;DHT22;4779;48.062;11.672;2023-06-26T01:48:22;17.60;93.20
9482;DHT22;4779;48.062;11.672;2023-06-26T01:50:51;17.50;93.30
9482;DHT22;4779;48.062;11.672;2023-06-26T01:53:23;17.50;93.40
9482;DHT22;4779;48.062;11.672;2023-06-26T01:55:53;17.50;93.40
9482;DHT22;4779;48.062;11.672;2023-06-26T01:58:23;17.50;93.30
9482;DHT22;4779;48.062;11.672;2023-06-26T02:00:52;17.50;93.50
9482;DHT22;4779;48.062;11.672;2023-06-26T02:03:19;17.50;93.50
9482;DHT22;4779;48.062;11.672;2023-06-26T02:05:46;17.40;93.40
9482;DHT22;4779;48.062;11.672;2023-06-26T02:08:14;17.40;93.60
9482;DHT22;4779;48.062;11.672;2023-06-26T02:10:41;17.40;94.00
9482;DHT22;4779;48.062;11.672;2023-06-26T02:13:08;17.30;93.60
9482;DHT22;4779;48.062;11.672;2023-06-26T02:15:35;17.20;93.60
9482;DHT22;4779;48.062;11.672;2023-06-26T02:18:03;17.20;93.60
9482;DHT22;4779;48.062;11.672;2023-06-26T02:20:30;17.30;93.90
9482;DHT22;4779;48.062;11.672;2023-06-26T02:22:58;17.30;93.90
9482;DHT22;4779;48.062;11.672;2023-06-26T02:25:25;17.20;93.80
9482;DHT22;4779;48.062;11.672;2023-06-26T02:27:52;17.20;94.20
9482;DHT22;4779;48.062;11.672;2023-06-26T02:30:19;17.20;94.30
9482;DHT22;4779;48.062;11.672;2023-06-26T02:32:46;17.20;94.40
9482;DHT22;4779;48.062;11.672;2023-06-26T02:35:14;17.10;94.40
9482;DHT22;4779;48.062;11.672;2023-06-26T02:37:41;17.10;94.40
9482;DHT22;4779;48.062;11.672;2023-06-26T02:40:09;17.10;94.60
9482;DHT22;4779;48.062;11.672;2023-06-26T02:42:37;17.10;94.70
9482;DHT22;4779;48.062;11.672;2023-06-26T02:45:05;17.10;94.70
9482;DHT22;4779;48.062;11.672;2023-06-26T02:47:31;17.10;94.60
9482;DHT22;4779;48.062;11.672;2023-06-26T02:49:59;17.00;94.70
9482;DHT22;4779;48.062;11.672;2023-06-26T02:52:27;17.00;94.80
9482;DHT22;4779;48.062;11.672;2023-06-26T02:54:54;17.00;94.70
9482;DHT22;4779;48.062;11.672;2023-06-26T02:57:21;17.00;94.70
9482;DHT22;4779;48.062;11.672;2023-06-26T02:59:48;17.00;94.50
9482;DHT22;4779;48.062;11.672;2023-06-26T03:02:15;17.00;94.70
9482;DHT22;4779;48.062;11.672;2023-06-26T03:04:42;17.00;94.70
9482;DHT22;4779;48.062;11.672;2023-06-26T03:07:09;16.90;94.90
9482;DHT22;4779;48.062;11.672;2023-06-26T03:09:37;17.00;95.40
9482;DHT22;4779;48.062;11.672;2023-06-26T03:12:04;16.90;95.00
9482;DHT22;4779;48.062;11.672;2023-06-26T03:14:31;16.90;94.90
9482;DHT22;4779;48.062;11.672;2023-06-26T03:16:58;16.90;94.90
9482;DHT22;4779;48.062;11.672;2023-06-26T03:19:28;16.80;94.90
9482;DHT22;4779;48.062;11.672;2023-06-26T03:21:56;16.90;94.80
9482;DHT22;4779;48.062;11.672;2023-06-26T03:24:22;16.90;94.90
9482;DHT22;4779;48.062;11.672;2023-06-26T03:26:51;16.90;94.90
9482;DHT22;4779;48.062;11.672;2023-06-26T03:29:18;16.90;95.30
9482;DHT22;4779;48.062;11.672;2023-06-26T03:31:44;16.90;94.90
9482;DHT22;4779;48.062;11.672;2023-06-26T03:34:11;16.80;95.20
9482;DHT22;4779;48.062;11.672;2023-06-26T03:36:38;16.80;95.30
9482;DHT22;4779;48.062;11.672;2023-06-26T03:39:08;16.90;95.30
9482;DHT22;4779;48.062;11.672;2023-06-26T03:41:34;16.90;95.40
9482;DHT22;4779;48.062;11.672;2023-06-26T03:44:03;16.90;95.50
9482;DHT22;4779;48.062;11.672;2023-06-26T03:46:30;17.00;95.70
9482;DHT22;4779;48.062;11.672;2023-06-26T03:48:57;16.90;95.60
9482;DHT22;4779;48.062;11.672;2023-06-26T03:51:24;16.90;95.60
9482;DHT22;4779;48.062;11.672;2023-06-26T03:53:51;17.00;95.70
9482;DHT22;4779;48.062;11.672;2023-06-26T03:56:18;17.00;95.70
9482;DHT22;4779;48.062;11.672;2023-06-26T03:58:45;17.00;96.10
9482;DHT22;4779;48.062;11.672;2023-06-26T04:01:13;17.00;96.00
9482;DHT22;4779;48.062;11.672;2023-06-26T04:03:40;17.10;95.70
9482;DHT22;4779;48.062;11.672;2023-06-26T04:06:07;17.10;95.80
9482;DHT22;4779;48.062;11.672;2023-06-26T04:08:35;17.10;95.50
9482;DHT22;4779;48.062;11.672;2023-06-26T04:11:02;17.10;96.10
9482;DHT22;4779;48.062;11.672;2023-06-26T04:13:29;17.20;95.90
9482;DHT22;4779;48.062;11.672;2023-06-26T04:15:55;17.20;96.20
9482;DHT22;4779;48.062;11.672;2023-06-26T04:18:24;17.20;96.70
9482;DHT22;4779;48.062;11.672;2023-06-26T04:21:04;17.20;96.40
9482;DHT22;4779;48.062;11.672;2023-06-26T04:23:32;17.30;96.30
9482;DHT22;4779;48.062;11.672;2023-06-26T04:25:59;17.30;96.50
9482;DHT22;4779;48.062;11.672;2023-06-26T04:28:27;17.30;96.30
9482;DHT22;4779;48.062;11.672;2023-06-26T04:30:54;17.40;96.00
9482;DHT22;4779;48.062;11.672;2023-06-26T04:33:21;17.50;95.60
9482;DHT22;4779;48.062;11.672;2023-06-26T04:35:50;17.60;94.80
9482;DHT22;4779;48.062;11.672;2023-06-26T04:38:17;17.70;95.20
9482;DHT22;4779;48.062;11.672;2023-06-26T04:40:44;17.80;94.60
9482;DHT22;4779;48.062;11.672;2023-06-26T04:43:11;17.80;94.60
9482;DHT22;4779;48.062;11.672;2023-06-26T04:45:38;17.70;94.90
9482;DHT22;4779;48.062;11.672;2023-06-26T04:48:05;17.70;94.40
9482;DHT22;4779;48.062;11.672;2023-06-26T04:50:32;17.80;94.30
9482;DHT22;4779;48.062;11.672;2023-06-26T04:53:01;17.90;94.10
9482;DHT22;4779;48.062;11.672;2023-06-26T04:55:28;18.00;94.40
9482;DHT22;4779;48.062;11.672;2023-06-26T04:57:54;18.00;94.20
9482;DHT22;4779;48.062;11.672;2023-06-26T05:00:21;18.30;94.00
9482;DHT22;4779;48.062;11.672;2023-06-26T05:02:50;18.40;93.70
9482;DHT22;4779;48.062;11.672;2023-06-26T05:05:24;18.50;93.70
9482;DHT22;4779;48.062;11.672;2023-06-26T05:07:53;18.60;93.80
9482;DHT22;4779;48.062;11.672;2023-06-26T05:10:22;18.70;93.40
9482;DHT22;4779;48.062;11.672;2023-06-26T05:12:49;18.70;93.40
9482;DHT22;4779;48.062;11.672;2023-06-26T05:15:16;18.90;93.60
9482;DHT22;4779;48.062;11.672;2023-06-26T05:17:43;19.00;93.30
9482;DHT22;4779;48.062;11.672;2023-06-26T05:20:11;19.30;93.20
9482;DHT22;4779;48.062;11.672;2023-06-26T05:22:39;19.30;93.00
9482;DHT22;4779;48.062;11.672;2023-06-26T05:25:08;19.30;92.50
9482;DHT22;4779;48.062;11.672;2023-06-26T05:27:37;19.30;92.70
9482;DHT22;4779;48.062;11.672;2023-06-26T05:30:05;19.20;93.20
9482;DHT22;4779;48.062;11.672;2023-06-26T05:32:34;19.20;93.00
9482;DHT22;4779;48.062;11.672;2023-06-26T05:35:03;19.30;92.90
9482;DHT22;4779;48.062;11.672;2023-06-26T05:37:33;19.30;93.10
9482;DHT22;4779;48.062;11.672;2023-06-26T05:40:01;19.40;93.20
9482;DHT22;4779;48.062;11.672;2023-06-26T05:42:29;19.50;93.20
9482;DHT22;4779;48.062;11.672;2023-06-26T05:44:57;19.60;92.80
9482;DHT22;4779;48.062;11.672;2023-06-26T05:47:24;19.70;92.70
9482;DHT22;4779;48.062;11.672;2023-06-26T05:49:51;19.80;92.90
9482;DHT22;4779;48.062;11.672;2023-06-26T05:52:18;20.00;92.70
9482;DHT22;4779;48.062;11.672;2023-06-26T05:54:45;20.10;92.90
9482;DHT22;4779;48.062;11.672;2023-06-26T05:57:13;20.40;92.80
9482;DHT22;4779;48.062;11.672;2023-06-26T05:59:43;20.40;91.90
9482;DHT22;4779;48.062;11.672;2023-06-26T06:02:11;20.40;91.80
9482;DHT22;4779;48.062;11.672;2023-06-26T06:04:38;20.50;92.10
9482;DHT22;4779;48.062;11.672;2023-06-26T06:07:05;20.60;93.20
9482;DHT22;4779;48.062;11.672;2023-06-26T06:09:32;20.60;92.10
9482;DHT22;4779;48.062;11.672;2023-06-26T06:11:59;20.60;92.00
9482;DHT22;4779;48.062;11.672;2023-06-26T06:14:27;20.80;91.50
9482;DHT22;4779;48.062;11.672;2023-06-26T06:16:54;20.90;92.00
9482;DHT22;4779;48.062;11.672;2023-06-26T06:19:22;21.00;91.30
9482;DHT22;4779;48.062;11.672;2023-06-26T06:21:49;21.20;91.10
9482;DHT22;4779;48.062;11.672;2023-06-26T06:24:16;21.30;91.40
9482;DHT22;4779;48.062;11.672;2023-06-26T06:26:43;21.40;91.50
9482;DHT22;4779;48.062;11.672;2023-06-26T06:29:11;21.60;91.00
9482;DHT22;4779;48.062;11.672;2023-06-26T06:31:38;21.70;91.60
9482;DHT22;4779;48.062;11.672;2023-06-26T06:34:05;21.80;91.00
9482;DHT22;4779;48.062;11.672;2023-06-26T06:36:34;22.00;91.10
9482;DHT22;4779;48.062;11.672;2023-06-26T06:39:01;22.10;90.80
9482;DHT22;4779;48.062;11.672;2023-06-26T06:41:27;22.30;90.60
9482;DHT22;4779;48.062;11.672;2023-06-26T06:43:54;22.50;89.60
9482;DHT22;4779;48.062;11.672;2023-06-26T06:46:21;22.60;90.10
9482;DHT22;4779;48.062;11.672;2023-06-26T06:48:48;22.70;88.80
9482;DHT22;4779;48.062;11.672;2023-06-26T06:51:15;22.80;89.70
9482;DHT22;4779;48.062;11.672;2023-06-26T06:53:43;23.00;89.60
9482;DHT22;4779;48.062;11.672;2023-06-26T06:56:10;23.10;90.10
9482;DHT22;4779;48.062;11.672;2023-06-26T06:58:37;23.40;86.90
9482;DHT22;4779;48.062;11.672;2023-06-26T07:01:08;23.60;86.20
9482;DHT22;4779;48.062;11.672;2023-06-26T07:03:35;23.70;86.90
9482;DHT22;4779;48.062;11.672;2023-06-26T07:06:02;23.80;83.00
9482;DHT22;4779;48.062;11.672;2023-06-26T07:08:29;23.80;85.00
9482;DHT22;4779;48.062;11.672;2023-06-26T07:10:58;24.00;83.60
9482;DHT22;4779;48.062;11.672;2023-06-26T07:13:25;24.10;82.90
9482;DHT22;4779;48.062;11.672;2023-06-26T07:15:52;24.40;82.50
9482;DHT22;4779;48.062;11.672;2023-06-26T07:18:19;24.50;81.00
9482;DHT22;4779;48.062;11.672;2023-06-26T07:20:47;24.60;82.00
9482;DHT22;4779;48.062;11.672;2023-06-26T07:23:14;24.70;83.00
9482;DHT22;4779;48.062;11.672;2023-06-26T07:25:41;24.80;83.80
9482;DHT22;4779;48.062;11.672;2023-06-26T07:28:11;24.90;83.20
9482;DHT22;4779;48.062;11.672;2023-06-26T07:30:39;25.00;82.40
9482;DHT22;4779;48.062;11.672;2023-06-26T07:33:06;25.00;80.80
9482;DHT22;4779;48.062;11.672;2023-06-26T07:35:33;25.10;84.30
9482;DHT22;4779;48.062;11.672;2023-06-26T07:38:00;25.20;82.20
9482;DHT22;4779;48.062;11.672;2023-06-26T07:40:27;25.40;85.00
9482;DHT22;4779;48.062;11.672;2023-06-26T07:42:53;25.50;82.50
9482;DHT22;4779;48.062;11.672;2023-06-26T07:45:22;25.70;83.20
9482;DHT22;4779;48.062;11.672;2023-06-26T07:47:49;25.70;80.50
9482;DHT22;4779;48.062;11.672;2023-06-26T07:50:15;25.80;78.40
9482;DHT22;4779;48.062;11.672;2023-06-26T07:52:47;25.90;83.80
9482;DHT22;4779;48.062;11.672;2023-06-26T07:55:13;26.10;81.40
9482;DHT22;4779;48.062;11.672;2023-06-26T07:57:40;26.10;79.50
9482;DHT22;4779;48.062;11.672;2023-06-26T08:00:08;26.10;81.00
9482;DHT22;4779;48.062;11.672;2023-06-26T08:02:37;26.30;78.20
9482;DHT22;4779;48.062;11.672;2023-06-26T08:05:04;26.50;80.90
9482;DHT22;4779;48.062;11.672;2023-06-26T08:07:31;26.60;78.30
9482;DHT22;4779;48.062;11.672;2023-06-26T08:09:58;26.60;79.10
9482;DHT22;4779;48.062;11.672;2023-06-26T08:12:25;26.50;78.70
9482;DHT22;4779;48.062;11.672;2023-06-26T08:14:52;26.60;80.20
9482;DHT22;4779;48.062;11.672;2023-06-26T08:17:19;26.70;79.20
9482;DHT22;4779;48.062;11.672;2023-06-26T08:19:47;26.90;80.20
9482;DHT22;4779;48.062;11.672;2023-06-26T08:22:14;27.00;77.20
9482;DHT22;4779;48.062;11.672;2023-06-26T08:24:41;27.00;78.20
9482;DHT22;4779;48.062;11.672;2023-06-26T08:27:08;27.10;76.50
9482;DHT22;4779;48.062;11.672;2023-06-26T08:29:35;27.30;76.50
9482;DHT22;4779;48.062;11.672;2023-06-26T08:32:02;27.40;75.20
9482;DHT22;4779;48.062;11.672;2023-06-26T08:34:29;27.40;78.50
9482;DHT22;4779;48.062;11.672;2023-06-26T08:36:57;27.60;75.30
9482;DHT22;4779;48.062;11.672;2023-06-26T08:39:24;27.70;78.00
9482;DHT22;4779;48.062;11.672;2023-06-26T08:41:52;27.80;75.40
9482;DHT22;4779;48.062;11.672;2023-06-26T08:44:19;27.90;73.90
9482;DHT22;4779;48.062;11.672;2023-06-26T08:46:49;28.10;73.30
9482;DHT22;4779;48.062;11.672;2023-06-26T08:49:20;28.20;75.70
9482;DHT22;4779;48.062;11.672;2023-06-26T08:51:51;28.40;75.00
9482;DHT22;4779;48.062;11.672;2023-06-26T08:54:24;28.40;71.60
9482;DHT22;4779;48.062;11.672;2023-06-26T08:56:54;28.60;73.70
9482;DHT22;4779;48.062;11.672;2023-06-26T08:59:22;28.70;73.60
9482;DHT22;4779;48.062;11.672;2023-06-26T09:01:50;28.80;73.50
9482;DHT22;4779;48.062;11.672;2023-06-26T09:04:17;29.00;73.70
9482;DHT22;4779;48.062;11.672;2023-06-26T09:06:44;29.00;72.50
9482;DHT22;4779;48.062;11.672;2023-06-26T09:09:11;29.10;69.20
9482;DHT22;4779;48.062;11.672;2023-06-26T09:11:39;28.80;66.60
9482;DHT22;4779;48.062;11.672;2023-06-26T09:14:07;29.00;70.10
9482;DHT22;4779;48.062;11.672;2023-06-26T09:16:39;29.20;68.90
9482;DHT22;4779;48.062;11.672;2023-06-26T09:19:10;29.20;67.90
9482;DHT22;4779;48.062;11.672;2023-06-26T09:21:38;29.50;68.80
9482;DHT22;4779;48.062;11.672;2023-06-26T09:24:07;29.70;69.60
9482;DHT22;4779;48.062;11.672;2023-06-26T09:26:35;29.40;65.40
9482;DHT22;4779;48.062;11.672;2023-06-26T09:29:05;28.70;70.10
9482;DHT22;4779;48.062;11.672;2023-06-26T09:31:32;28.40;72.70
9482;DHT22;4779;48.062;11.672;2023-06-26T09:34:00;28.70;74.90
9482;DHT22;4779;48.062;11.672;2023-06-26T09:36:29;28.70;69.50
9482;DHT22;4779;48.062;11.672;2023-06-26T09:38:59;28.70;71.30
9482;DHT22;4779;48.062;11.672;2023-06-26T09:41:27;29.00;69.50
9482;DHT22;4779;48.062;11.672;2023-06-26T09:43:58;29.20;69.70
9482;DHT22;4779;48.062;11.672;2023-06-26T09:46:30;29.30;69.00
9482;DHT22;4779;48.062;11.672;2023-06-26T09:49:03;29.30;68.80
9482;DHT22;4779;48.062;11.672;2023-06-26T09:51:33;28.90;69.20
9482;DHT22;4779;48.062;11.672;2023-06-26T09:54:02;28.40;67.90
9482;DHT22;4779;48.062;11.672;2023-06-26T09:56:31;28.70;74.00
9482;DHT22;4779;48.062;11.672;2023-06-26T09:59:00;29.20;70.70
9482;DHT22;4779;48.062;11.672;2023-06-26T10:01:31;29.30;71.30
9482;DHT22;4779;48.062;11.672;2023-06-26T10:03:58;29.00;69.90
9482;DHT22;4779;48.062;11.672;2023-06-26T10:06:28;28.80;72.90
9482;DHT22;4779;48.062;11.672;2023-06-26T10:08:56;29.00;69.70
9482;DHT22;4779;48.062;11.672;2023-06-26T10:11:26;29.40;66.30
9482;DHT22;4779;48.062;11.672;2023-06-26T10:13:55;29.30;66.30
9482;DHT22;4779;48.062;11.672;2023-06-26T10:16:25;29.20;67.40
9482;DHT22;4779;48.062;11.672;2023-06-26T10:18:58;29.30;69.90
9482;DHT22;4779;48.062;11.672;2023-06-26T10:21:29;29.50;66.40
9482;DHT22;4779;48.062;11.672;2023-06-26T10:23:59;29.90;66.00
9482;DHT22;4779;48.062;11.672;2023-06-26T10:26:26;30.20;68.10
9482;DHT22;4779;48.062;11.672;2023-06-26T10:28:56;30.40;65.70
9482;DHT22;4779;48.062;11.672;2023-06-26T10:31:27;30.50;66.40
9482;DHT22;4779;48.062;11.672;2023-06-26T10:33:56;30.90;69.50
9482;DHT22;4779;48.062;11.672;2023-06-26T10:36:28;30.80;63.30
9482;DHT22;4779;48.062;11.672;2023-06-26T10:38:56;30.50;64.70
9482;DHT22;4779;48.062;11.672;2023-06-26T10:41:25;30.30;67.10
9482;DHT22;4779;48.062;11.672;2023-06-26T10:44:06;30.40;63.10
9482;DHT22;4779;48.062;11.672;2023-06-26T10:46:33;30.90;66.80
9482;DHT22;4779;48.062;11.672;2023-06-26T10:49:02;31.50;64.30
9482;DHT22;4779;48.062;11.672;2023-06-26T10:51:29;32.00;59.90
9482;DHT22;4779;48.062;11.672;2023-06-26T10:53:58;32.50;60.80
9482;DHT22;4779;48.062;11.672;2023-06-26T10:56:45;32.80;58.10
9482;DHT22;4779;48.062;11.672;2023-06-26T10:59:16;32.20;54.80
9482;DHT22;4779;48.062;11.672;2023-06-26T11:01:45;31.50;59.30
9482;DHT22;4779;48.062;11.672;2023-06-26T11:04:14;31.80;64.00
9482;DHT22;4779;48.062;11.672;2023-06-26T11:06:45;31.80;59.50
9482;DHT22;4779;48.062;11.672;2023-06-26T11:09:17;31.50;62.50
9482;DHT22;4779;48.062;11.672;2023-06-26T11:11:58;31.30;57.60
9482;DHT22;4779;48.062;11.672;2023-06-26T11:14:32;31.60;59.00
9482;DHT22;4779;48.062;11.672;2023-06-26T11:17:01;32.00;59.30
9482;DHT22;4779;48.062;11.672;2023-06-26T11:19:30;32.10;56.50
9482;DHT22;4779;48.062;11.672;2023-06-26T11:22:02;31.70;59.50
9482;DHT22;4779;48.062;11.672;2023-06-26T11:24:30;31.50;59.50
